Terminal Aerodrome Forecast
Issued by NWS

Home | Current Version | Previous Version | Text Only | Print | Product List | Glossary On
Versions: 1 2 3 4 5 6 7 8 9 10 11 12 13 14 15 16 17 18 19 20 21 22 23 24 25 26 27 28 29 30 31 32 33 34
000
FTUS45 KSLC 222328
TAFSGU
TAFSGU
TAF
KSGU 222328Z 2300/2324 16012KT P6SM -SHRA SCT040 BKN070
     FM230200 VRB06KT P6SM VCSH SCT060 BKN080
     FM230900 12007KT P6SM -SHRA BKN060 OVC080
     FM232000 26010KT P6SM VCSH SCT060 BKN080
      AMD LTD TO CLD VIS AND WIND=

USA.gov is the U.S. government's official web portal to all federal, state and local government web resources and services.